createdAt,value
2018-09-12T00:00:30.248Z,60.81
2018-09-12T00:03:00.372Z,60.49
2018-09-12T00:05:30.459Z,61.20
2018-09-12T00:08:00.887Z,60.68
2018-09-12T00:10:30.994Z,61.49
2018-09-12T00:13:01.480Z,61.66
2018-09-12T00:15:31.901Z,60.61
2018-09-12T00:18:02.111Z,60.98
2018-09-12T00:20:32.309Z,61.41
2018-09-12T00:23:02.568Z,61.68
2018-09-12T00:25:33.037Z,62.43
2018-09-12T00:28:03.537Z,61.65
2018-09-12T00:30:33.723Z,61.66
2018-09-12T00:33:04.438Z,62.69
2018-09-12T00:35:34.851Z,62.60
2018-09-12T00:38:05.221Z,62.89
2018-09-12T00:40:35.218Z,62.82
2018-09-12T00:43:05.526Z,62.52
2018-09-12T00:45:35.720Z,62.71
2018-09-12T00:48:06.087Z,63.44
2018-09-12T00:50:36.419Z,63.23
2018-09-12T00:53:06.875Z,63.39
2018-09-12T00:55:37.104Z,63.54
2018-09-12T00:58:07.456Z,63.74
2018-09-12T01:00:37.611Z,62.93
2018-09-12T01:03:08.121Z,63.89
2018-09-12T01:05:41.999Z,64.16
2018-09-12T01:08:13.413Z,64.23
2018-09-12T01:10:43.497Z,64.50
2018-09-12T01:13:13.968Z,63.83
2018-09-12T01:15:44.157Z,64.46
2018-09-12T01:18:20.507Z,64.35
2018-09-12T01:20:51.776Z,64.98
2018-09-12T01:23:22.208Z,64.89
2018-09-12T01:25:52.595Z,64.17
2018-09-12T01:28:22.496Z,64.69
2018-09-12T01:30:52.614Z,64.27
2018-09-12T01:33:23.305Z,64.62
2018-09-12T01:35:53.686Z,64.51
2018-09-12T01:38:23.853Z,64.96
2018-09-12T01:40:54.439Z,65.29
2018-09-12T01:43:24.469Z,65.56
2018-09-12T01:45:55.025Z,65.26
2018-09-12T01:48:25.918Z,65.11
2018-09-12T01:50:56.206Z,65.24
2018-09-12T01:53:26.411Z,66.24
2018-09-12T01:55:56.793Z,65.55
2018-09-12T01:58:27.154Z,65.73
2018-09-12T02:00:58.144Z,65.98
2018-09-12T02:03:28.579Z,65.83
2018-09-12T02:05:58.908Z,65.80
2018-09-12T02:08:28.826Z,66.19
2018-09-12T02:10:59.107Z,66.28
2018-09-12T02:13:29.199Z,67.07
2018-09-12T02:15:59.553Z,66.23
2018-09-12T02:18:29.665Z,67.02
2018-09-12T02:20:59.828Z,66.32
2018-09-12T02:23:30.355Z,66.51
2018-09-12T02:26:00.554Z,67.20
2018-09-12T02:28:30.630Z,67.38
2018-09-12T02:31:00.961Z,67.27
2018-09-12T02:33:31.263Z,67.03
2018-09-12T02:36:06.609Z,67.43
2018-09-12T02:38:36.584Z,66.77
2018-09-12T02:41:06.950Z,66.73
2018-09-12T02:43:37.242Z,66.64
2018-09-12T02:46:07.566Z,67.25
2018-09-12T02:48:37.780Z,67.42
2018-09-12T02:51:08.137Z,67.23
2018-09-12T02:53:38.110Z,67.10
2018-09-12T02:56:08.157Z,67.81
2018-09-12T02:58:38.461Z,67.87
2018-09-12T03:01:09.047Z,68.12
2018-09-12T03:03:39.316Z,68.41
2018-09-12T03:06:09.599Z,67.98
2018-09-12T03:08:40.055Z,67.95
2018-09-12T03:11:10.061Z,67.72
2018-09-12T03:13:40.372Z,67.74
2018-09-12T03:16:11.013Z,67.83
2018-09-12T03:18:40.968Z,68.21
2018-09-12T03:21:11.139Z,67.82
2018-09-12T03:23:41.310Z,67.96
2018-09-12T03:26:11.551Z,67.97
2018-09-12T03:28:42.197Z,68.00
2018-09-12T03:31:12.649Z,68.29
2018-09-12T03:33:43.074Z,68.19
2018-09-12T03:36:13.647Z,68.10
2018-09-12T03:38:43.753Z,68.60
2018-09-12T03:41:13.955Z,68.09
2018-09-12T03:43:44.238Z,68.02
2018-09-12T03:46:14.455Z,68.84
2018-09-12T03:48:44.659Z,68.16
2018-09-12T03:51:15.283Z,69.22
2018-09-12T03:53:45.574Z,68.73
2018-09-12T03:56:15.811Z,69.03
2018-09-12T03:58:46.340Z,69.81
2018-09-12T04:01:16.966Z,69.71
2018-09-12T04:03:47.095Z,70.02
2018-09-12T04:06:19.059Z,69.09
2018-09-12T04:08:49.351Z,70.22
2018-09-12T04:11:20.027Z,70.34
2018-09-12T04:13:50.380Z,69.82
2018-09-12T04:16:20.983Z,69.90
2018-09-12T04:18:51.069Z,70.14
2018-09-12T04:21:21.180Z,70.18
2018-09-12T04:23:51.609Z,69.97
2018-09-12T04:26:21.860Z,70.17
2018-09-12T04:28:52.206Z,70.65
2018-09-12T04:31:22.476Z,69.74
2018-09-12T04:33:52.989Z,69.67
2018-09-12T04:36:23.405Z,70.02
2018-09-12T04:38:53.611Z,70.36
2018-09-12T04:41:23.482Z,70.06
2018-09-12T04:43:53.471Z,70.03
2018-09-12T04:46:23.387Z,70.84
2018-09-12T04:48:53.234Z,71.06
2018-09-12T04:51:23.106Z,70.54
2018-09-12T04:53:53.240Z,71.06
2018-09-12T04:56:23.209Z,70.85
2018-09-12T04:58:53.642Z,71.19
2018-09-12T05:01:23.519Z,71.35
2018-09-12T05:03:53.384Z,70.84
2018-09-12T05:06:23.405Z,71.02
2018-09-12T05:08:53.297Z,70.96
2018-09-12T05:11:23.292Z,70.92
2018-09-12T05:13:53.335Z,70.67
2018-09-12T05:16:23.403Z,71.45
2018-09-12T05:18:53.673Z,70.65
2018-09-12T05:21:23.796Z,71.33
2018-09-12T05:23:53.888Z,71.07
2018-09-12T05:26:24.060Z,70.57
2018-09-12T05:28:53.888Z,70.57
2018-09-12T05:31:24.052Z,70.04
2018-09-12T05:33:54.112Z,70.00
2018-09-12T05:36:24.021Z,69.65
2018-09-12T05:38:54.335Z,69.92
2018-09-12T05:41:24.352Z,69.63
2018-09-12T05:43:54.551Z,69.56
2018-09-12T05:46:24.521Z,69.75
2018-09-12T05:48:54.923Z,69.10
2018-09-12T05:51:25.194Z,69.05
2018-09-12T05:53:55.648Z,68.77
2018-09-12T05:56:25.840Z,67.93
2018-09-12T05:58:56.116Z,67.39
2018-09-12T06:01:26.314Z,67.08
2018-09-12T06:03:56.563Z,67.08
2018-09-12T06:06:26.452Z,65.99
2018-09-12T06:08:56.448Z,65.83
2018-09-12T06:11:26.224Z,64.79
2018-09-12T06:13:56.474Z,65.85
2018-09-12T06:16:26.499Z,65.87
2018-09-12T06:18:56.499Z,66.50
2018-09-12T06:21:26.337Z,66.77
2018-09-12T06:23:56.340Z,66.53
2018-09-12T06:26:26.315Z,65.66
2018-09-12T06:28:56.346Z,66.40
2018-09-12T06:31:26.178Z,65.72
2018-09-12T06:33:55.998Z,65.73
2018-09-12T06:36:25.807Z,66.24
2018-09-12T06:38:55.615Z,66.81
2018-09-12T06:41:25.560Z,67.21
2018-09-12T06:43:55.498Z,66.80
2018-09-12T06:46:25.372Z,68.23
2018-09-12T06:48:55.203Z,67.77
2018-09-12T06:51:25.048Z,68.11
2018-09-12T06:53:54.898Z,67.61
2018-09-12T06:56:24.889Z,66.86
2018-09-12T06:58:55.517Z,68.21
2018-09-12T07:01:25.568Z,67.44
2018-09-12T07:03:55.993Z,68.07
2018-09-12T07:06:25.958Z,68.00
2018-09-12T07:08:55.999Z,68.86
2018-09-12T07:11:25.859Z,68.85
2018-09-12T07:13:56.146Z,68.96
2018-09-12T07:16:26.505Z,68.93
2018-09-12T07:18:56.459Z,69.53
2018-09-12T07:21:26.823Z,69.60
2018-09-12T07:23:57.116Z,68.49
2018-09-12T07:26:27.302Z,68.50
2018-09-12T07:28:58.040Z,69.10
2018-09-12T07:31:28.418Z,68.73
2018-09-12T07:33:58.606Z,68.62
2018-09-12T07:36:29.161Z,68.31
2018-09-12T07:38:59.535Z,67.31
2018-09-12T07:41:29.942Z,67.51
2018-09-12T07:44:00.185Z,66.62
2018-09-12T07:46:30.450Z,66.96
2018-09-12T07:49:00.915Z,67.02
2018-09-12T07:51:31.254Z,67.12
2018-09-12T07:54:01.727Z,67.53
2018-09-12T07:56:32.157Z,66.26
2018-09-12T07:59:02.626Z,66.75
2018-09-12T08:01:32.952Z,66.21
2018-09-12T08:04:03.183Z,66.65
2018-09-12T08:06:33.641Z,68.19
2018-09-12T08:09:04.977Z,68.39
2018-09-12T08:11:35.422Z,67.94
2018-09-12T08:14:05.700Z,67.93
2018-09-12T08:16:36.342Z,69.04
2018-09-12T08:19:07.117Z,68.88
2018-09-12T08:21:37.361Z,67.51
2018-09-12T08:24:07.684Z,67.82
2018-09-12T08:26:38.114Z,66.71
2018-09-12T08:29:08.410Z,65.70
2018-09-12T08:31:39.094Z,65.79
2018-09-12T08:34:09.487Z,66.52
2018-09-12T08:36:39.997Z,66.91
2018-09-12T08:39:11.202Z,68.00
2018-09-12T08:41:41.569Z,67.83
2018-09-12T08:44:12.316Z,67.99
2018-09-12T08:46:43.627Z,66.66
2018-09-12T08:49:13.985Z,67.36
2018-09-12T08:51:44.403Z,66.50
2018-09-12T08:54:14.936Z,66.19
2018-09-12T08:56:45.598Z,66.76
2018-09-12T08:59:16.137Z,65.88
2018-09-12T09:01:46.261Z,65.99
2018-09-12T09:04:16.300Z,66.41
2018-09-12T09:06:46.636Z,66.34
2018-09-12T09:09:16.907Z,65.17
2018-09-12T09:11:47.451Z,65.61
2018-09-12T09:14:18.046Z,65.84
2018-09-12T09:16:48.393Z,65.06
2018-09-12T09:19:18.873Z,65.34
2018-09-12T09:21:49.054Z,65.41
2018-09-12T09:24:19.612Z,64.83
2018-09-12T09:26:50.023Z,64.14
2018-09-12T09:29:20.806Z,64.75
2018-09-12T09:31:50.990Z,64.06
2018-09-12T09:34:21.687Z,64.35
2018-09-12T09:36:52.379Z,63.33
2018-09-12T09:39:23.070Z,63.10
2018-09-12T09:41:53.288Z,63.10
2018-09-12T09:44:24.621Z,62.84
2018-09-12T09:46:55.083Z,62.10
2018-09-12T09:49:25.336Z,61.94
2018-09-12T09:51:55.946Z,61.74
2018-09-12T09:54:26.382Z,62.26
2018-09-12T09:56:56.764Z,61.30
2018-09-12T09:59:26.931Z,62.30
2018-09-12T10:02:02.373Z,62.49
2018-09-12T10:04:38.027Z,61.65
2018-09-12T10:07:13.371Z,63.14
2018-09-12T10:09:43.600Z,62.34
2018-09-12T10:12:13.793Z,63.04
2018-09-12T10:14:44.088Z,62.34
2018-09-12T10:17:14.341Z,62.32
2018-09-12T10:19:44.586Z,62.34
2018-09-12T10:22:14.825Z,62.19
2018-09-12T10:24:45.079Z,63.36
2018-09-12T10:27:15.739Z,63.66
2018-09-12T10:29:46.384Z,62.50
2018-09-12T10:32:16.955Z,62.95
2018-09-12T10:34:47.875Z,62.50
2018-09-12T10:37:18.855Z,62.75
2018-09-12T10:39:49.320Z,63.31
2018-09-12T10:42:20.047Z,63.02
2018-09-12T10:44:50.654Z,61.84
2018-09-12T10:47:21.045Z,62.60
2018-09-12T10:49:51.385Z,61.75
2018-09-12T10:52:21.898Z,61.66
2018-09-12T10:54:52.558Z,60.03
2018-09-12T10:57:22.978Z,60.46
2018-09-12T10:59:53.682Z,59.42
2018-09-12T11:02:24.005Z,58.96
2018-09-12T11:04:54.351Z,58.40
2018-09-12T11:07:24.678Z,59.28
2018-09-12T11:09:55.044Z,59.83
2018-09-12T11:12:25.569Z,58.71
2018-09-12T11:14:55.900Z,59.98
2018-09-12T11:17:26.322Z,59.33
2018-09-12T11:19:56.816Z,58.76
2018-09-12T11:22:27.549Z,59.02
2018-09-12T11:24:57.859Z,58.97
2018-09-12T11:27:28.199Z,58.66
2018-09-12T11:29:58.753Z,58.59
2018-09-12T11:32:29.337Z,58.59
2018-09-12T11:34:59.858Z,59.36
2018-09-12T11:37:30.585Z,59.60
2018-09-12T11:40:01.145Z,58.81
2018-09-12T11:42:31.414Z,59.22
2018-09-12T11:45:01.903Z,60.01
2018-09-12T11:47:32.224Z,59.56
2018-09-12T11:50:03.242Z,59.14
2018-09-12T11:52:33.495Z,59.68
2018-09-12T11:55:04.121Z,60.44
2018-09-12T11:57:34.467Z,61.29
2018-09-12T12:00:05.440Z,62.96
2018-09-12T12:02:35.701Z,64.89
2018-09-12T12:05:06.352Z,65.16
2018-09-12T12:07:36.739Z,65.41
2018-09-12T12:10:06.983Z,66.29
2018-09-12T12:12:37.433Z,66.52
2018-09-12T12:15:07.666Z,67.07
2018-09-12T12:17:38.376Z,68.00
2018-09-12T12:20:09.224Z,68.39
2018-09-12T12:22:39.461Z,68.96
2018-09-12T12:25:09.875Z,69.01
2018-09-12T12:27:40.315Z,68.09
2018-09-12T12:30:10.396Z,67.85
2018-09-12T12:32:40.628Z,67.50
2018-09-12T12:35:10.722Z,66.96
2018-09-12T12:37:41.162Z,67.00
2018-09-12T12:40:11.351Z,67.37
2018-09-12T12:42:41.544Z,67.00
2018-09-12T12:45:11.448Z,67.09
2018-09-12T12:47:41.608Z,68.00
2018-09-12T12:50:11.729Z,67.34
2018-09-12T12:52:42.122Z,66.05
2018-09-12T12:55:12.640Z,65.72
2018-09-12T12:57:42.680Z,65.62
2018-09-12T13:00:13.336Z,65.99
2018-09-12T13:02:43.549Z,64.70
2018-09-12T13:05:13.707Z,65.31
2018-09-12T13:07:44.025Z,65.21
2018-09-12T13:10:14.265Z,64.31
2018-09-12T13:12:44.412Z,65.08
2018-09-12T13:15:14.824Z,65.87
2018-09-12T13:17:45.774Z,67.54
2018-09-12T13:20:16.261Z,69.21
2018-09-12T13:22:46.368Z,69.02
2018-09-12T13:25:16.571Z,68.47
2018-09-12T13:27:47.045Z,69.65
2018-09-12T13:30:17.420Z,71.77
2018-09-12T13:32:47.786Z,72.90
2018-09-12T13:35:18.034Z,72.32
2018-09-12T13:37:48.368Z,72.80
2018-09-12T13:40:18.756Z,73.72
2018-09-12T13:42:48.847Z,73.35
2018-09-12T13:45:18.996Z,73.23
2018-09-12T13:47:49.128Z,74.07
2018-09-12T13:50:19.525Z,72.87
2018-09-12T13:52:50.099Z,72.06
2018-09-12T13:55:20.452Z,72.55
2018-09-12T13:57:50.532Z,73.50
2018-09-12T14:00:21.267Z,73.25
2018-09-12T14:02:51.687Z,74.18
2018-09-12T14:05:22.084Z,73.51
2018-09-12T14:07:52.413Z,73.71
2018-09-12T14:10:22.855Z,74.01
2018-09-12T14:12:53.175Z,74.41
2018-09-12T14:15:23.412Z,74.89
2018-09-12T14:17:53.749Z,74.18
2018-09-12T14:20:23.684Z,75.73
2018-09-12T14:22:54.120Z,75.00
2018-09-12T14:25:24.351Z,73.17
2018-09-12T14:27:54.652Z,72.48
2018-09-12T14:30:25.230Z,72.45
2018-09-12T14:33:15.814Z,71.52
2018-09-12T14:35:46.323Z,72.50
2018-09-12T14:38:16.647Z,73.30
2018-09-12T14:40:46.866Z,73.40
2018-09-12T14:43:17.256Z,72.71
2018-09-12T14:45:47.424Z,73.13
2018-09-12T14:48:17.703Z,74.99
2018-09-12T14:50:48.133Z,77.11
2018-09-12T14:53:18.371Z,79.24
2018-09-12T14:55:48.455Z,79.88
2018-09-12T14:58:18.763Z,80.71
2018-09-12T15:00:53.393Z,81.69
2018-09-12T15:03:24.357Z,82.19
2018-09-12T15:05:54.485Z,83.04
2018-09-12T15:08:24.811Z,81.86
2018-09-12T15:10:54.990Z,83.17
2018-09-12T15:13:25.030Z,81.86
2018-09-12T15:15:55.523Z,81.20
2018-09-12T15:18:26.034Z,82.52
2018-09-12T15:20:56.327Z,82.79
2018-09-12T15:23:26.814Z,82.88
2018-09-12T15:25:56.618Z,83.70
2018-09-12T15:28:26.754Z,84.12
2018-09-12T15:30:56.855Z,84.96
2018-09-12T15:33:26.887Z,84.35
2018-09-12T15:35:57.412Z,83.49
2018-09-12T15:38:27.545Z,83.52
2018-09-12T15:40:57.559Z,84.33
2018-09-12T15:43:27.432Z,83.65
2018-09-12T15:45:57.680Z,83.92
2018-09-12T15:48:27.614Z,84.79
2018-09-12T15:50:57.620Z,84.32
2018-09-12T15:53:27.431Z,85.09
2018-09-12T15:55:57.375Z,85.42
2018-09-12T15:58:27.368Z,84.91
2018-09-12T16:00:57.381Z,84.44
2018-09-12T16:03:27.343Z,84.22
2018-09-12T16:05:57.230Z,84.18
2018-09-12T16:08:27.143Z,83.42
2018-09-12T16:10:57.158Z,83.98
2018-09-12T16:13:27.065Z,83.77
2018-09-12T16:15:56.984Z,83.60
2018-09-12T16:18:26.941Z,84.43
2018-09-12T16:20:56.872Z,83.79
2018-09-12T16:23:27.098Z,83.64
2018-09-12T16:25:57.477Z,83.83
2018-09-12T16:28:27.671Z,83.74
2018-09-12T16:30:57.668Z,83.74
2018-09-12T16:33:27.905Z,84.10
2018-09-12T16:35:58.326Z,83.61
2018-09-12T16:38:28.771Z,83.31
2018-09-12T16:40:59.420Z,84.02
2018-09-12T16:43:29.818Z,83.03
2018-09-12T16:46:00.023Z,82.61
2018-09-12T16:48:30.086Z,83.73
2018-09-12T16:51:00.247Z,83.18
2018-09-12T16:53:30.518Z,82.71
2018-09-12T16:56:01.202Z,83.51
2018-09-12T16:58:31.037Z,83.14
2018-09-12T17:01:01.521Z,82.54
2018-09-12T17:03:31.825Z,82.42
2018-09-12T17:06:02.215Z,82.58
2018-09-12T17:08:32.879Z,82.65
2018-09-12T17:11:03.585Z,82.09
2018-09-12T17:13:34.055Z,81.42
2018-09-12T17:16:04.422Z,82.03
2018-09-12T17:18:35.119Z,81.47
2018-09-12T17:21:05.726Z,80.73
2018-09-12T17:23:36.376Z,80.57
2018-09-12T17:26:06.740Z,81.15
2018-09-12T17:28:36.837Z,80.98
2018-09-12T17:31:06.924Z,82.30
2018-09-12T17:33:37.298Z,82.31
2018-09-12T17:36:07.424Z,81.82
2018-09-12T17:38:37.890Z,81.53
2018-09-12T17:41:08.432Z,82.18
2018-09-12T17:43:38.767Z,81.74
2018-09-12T17:46:08.949Z,81.33
2018-09-12T17:48:39.387Z,81.62
2018-09-12T17:51:10.064Z,80.74
2018-09-12T17:53:40.593Z,81.29
2018-09-12T17:56:11.132Z,81.44
2018-09-12T17:58:41.268Z,80.93
2018-09-12T18:01:12.102Z,80.82
2018-09-12T18:03:42.608Z,80.89
2018-09-12T18:06:13.379Z,81.29
2018-09-12T18:08:43.832Z,82.32
2018-09-12T18:11:14.306Z,80.89
2018-09-12T18:13:44.295Z,81.67
2018-09-12T18:16:14.830Z,80.84
2018-09-12T18:18:45.389Z,79.92
2018-09-12T18:21:15.623Z,79.75
2018-09-12T18:23:45.975Z,79.41
2018-09-12T18:26:16.169Z,79.70
2018-09-12T18:28:46.293Z,80.44
2018-09-12T18:31:16.932Z,79.90
2018-09-12T18:33:47.357Z,80.29
2018-09-12T18:36:17.604Z,79.93
2018-09-12T18:38:47.894Z,79.60
2018-09-12T18:41:18.318Z,80.72
2018-09-12T18:43:49.075Z,79.80
2018-09-12T18:46:19.469Z,79.98
2018-09-12T18:48:49.824Z,80.57
2018-09-12T18:51:20.453Z,81.00
2018-09-12T18:53:51.106Z,80.85
2018-09-12T18:56:21.499Z,81.55
2018-09-12T18:58:52.317Z,80.51
2018-09-12T19:01:23.029Z,81.02
2018-09-12T19:03:53.864Z,80.71
2018-09-12T19:06:24.097Z,80.13
2018-09-12T19:08:54.436Z,80.12
2018-09-12T19:11:25.282Z,79.67
2018-09-12T19:13:56.023Z,80.41
2018-09-12T19:16:26.958Z,80.15
2018-09-12T19:18:57.669Z,79.71
2018-09-12T19:21:28.301Z,79.15
2018-09-12T19:23:59.457Z,80.06
2018-09-12T19:26:29.716Z,79.10
2018-09-12T19:29:00.134Z,79.04
2018-09-12T19:31:30.381Z,79.79
2018-09-12T19:34:00.547Z,79.55
2018-09-12T19:36:31.068Z,79.18
2018-09-12T19:39:01.441Z,79.41
2018-09-12T19:41:31.508Z,78.53
2018-09-12T19:44:02.203Z,78.89
2018-09-12T19:46:32.481Z,79.00
2018-09-12T19:49:03.253Z,79.37
2018-09-12T19:51:34.004Z,80.07
2018-09-12T19:54:04.365Z,80.40
2018-09-12T19:56:34.697Z,79.60
2018-09-12T19:59:04.778Z,79.15
2018-09-12T20:01:35.261Z,79.24
2018-09-12T20:04:06.053Z,78.80
2018-09-12T20:06:36.327Z,79.00
2018-09-12T20:09:10.145Z,79.68
2018-09-12T20:11:40.746Z,78.62
2018-09-12T20:14:11.330Z,79.87
2018-09-12T20:16:42.556Z,79.08
2018-09-12T20:19:15.763Z,79.54
2018-09-12T20:21:46.133Z,78.34
2018-09-12T20:24:16.399Z,79.04
2018-09-12T20:26:46.709Z,79.27
2018-09-12T20:29:16.772Z,78.46
2018-09-12T20:31:47.604Z,79.72
2018-09-12T20:34:18.057Z,79.23
2018-09-12T20:36:48.467Z,78.69
2018-09-12T20:39:18.725Z,79.55
2018-09-12T20:41:49.402Z,78.70
2018-09-12T20:44:19.733Z,78.98
2018-09-12T20:46:50.248Z,79.34
2018-09-12T20:49:20.258Z,79.18
2018-09-12T20:51:50.957Z,79.49
2018-09-12T20:54:22.070Z,79.79
2018-09-12T20:56:52.384Z,79.90
2018-09-12T20:59:22.693Z,79.21
2018-09-12T21:01:52.653Z,79.24
2018-09-12T21:04:22.716Z,79.81
2018-09-12T21:06:53.282Z,78.71
2018-09-12T21:09:23.504Z,78.65
2018-09-12T21:11:54.218Z,78.44
2018-09-12T21:14:24.155Z,78.57
2018-09-12T21:16:54.588Z,79.35
2018-09-12T21:19:25.339Z,78.96
2018-09-12T21:21:55.552Z,79.42
2018-09-12T21:24:26.011Z,79.58
2018-09-12T21:26:56.028Z,78.54
2018-09-12T21:29:26.418Z,78.71
2018-09-12T21:31:56.737Z,79.15
2018-09-12T21:34:26.904Z,78.85
2018-09-12T21:36:56.914Z,79.08
2018-09-12T21:39:27.407Z,79.17
2018-09-12T21:41:57.873Z,79.68
2018-09-12T21:44:28.541Z,79.81
2018-09-12T21:46:58.799Z,79.97
2018-09-12T21:49:29.171Z,78.90
2018-09-12T21:51:59.781Z,78.85
2018-09-12T21:54:30.393Z,79.19
2018-09-12T21:57:01.014Z,80.04
2018-09-12T21:59:31.366Z,78.84
2018-09-12T22:02:01.788Z,78.87
2018-09-12T22:04:31.816Z,78.97
2018-09-12T22:07:02.039Z,78.58
2018-09-12T22:09:32.525Z,77.51
2018-09-12T22:12:02.769Z,78.01
2018-09-12T22:14:33.042Z,77.71
2018-09-12T22:17:03.430Z,77.74
2018-09-12T22:19:33.967Z,78.30
2018-09-12T22:22:04.247Z,78.33
2018-09-12T22:24:34.580Z,79.07
2018-09-12T22:27:05.111Z,79.20
2018-09-12T22:29:35.335Z,80.28
2018-09-12T22:32:05.483Z,79.65
2018-09-12T22:34:35.983Z,78.88
2018-09-12T22:37:06.311Z,79.30
2018-09-12T22:39:36.701Z,79.28
2018-09-12T22:42:07.033Z,79.32
2018-09-12T22:44:37.471Z,79.60
2018-09-12T22:47:07.442Z,80.23
2018-09-12T22:49:37.970Z,79.99
2018-09-12T22:52:08.333Z,80.25
2018-09-12T22:54:38.575Z,80.89
2018-09-12T22:57:08.458Z,80.47
2018-09-12T22:59:38.776Z,80.68
2018-09-12T23:02:09.029Z,80.97
2018-09-12T23:04:39.574Z,81.08
2018-09-12T23:07:09.960Z,80.66
2018-09-12T23:09:40.386Z,81.28
2018-09-12T23:12:10.804Z,81.51
2018-09-12T23:14:41.349Z,81.00
2018-09-12T23:17:11.399Z,81.40
2018-09-12T23:19:41.316Z,82.03
2018-09-12T23:22:11.809Z,82.38
2018-09-12T23:24:42.505Z,82.76
2018-09-12T23:27:12.799Z,82.48
2018-09-12T23:29:43.490Z,81.86
2018-09-12T23:32:13.871Z,82.06
2018-09-12T23:34:43.867Z,82.97
2018-09-12T23:37:14.618Z,82.15
2018-09-12T23:39:45.314Z,83.01
2018-09-12T23:42:16.251Z,82.14
2018-09-12T23:44:46.739Z,82.16
2018-09-12T23:47:17.353Z,82.75
2018-09-12T23:49:47.248Z,83.21
2018-09-12T23:52:17.793Z,83.15
2018-09-12T23:54:48.281Z,83.05
2018-09-12T23:57:18.765Z,83.63
2018-09-12T23:59:49.244Z,83.92
